createdAt,value
2018-09-05T00:01:05.972Z,4.43
2018-09-05T00:03:36.329Z,4.90
2018-09-05T00:06:07.161Z,5.10
2018-09-05T00:08:38.724Z,4.70
2018-09-05T00:11:18.121Z,6.30
2018-09-05T00:13:49.086Z,4.97
2018-09-05T00:16:19.521Z,5.20
2018-09-05T00:18:51.687Z,4.50
2018-09-05T00:21:23.913Z,5.37
2018-09-05T00:23:54.485Z,4.40
2018-09-05T00:26:26.058Z,5.13
2018-09-05T00:28:57.041Z,5.43
2018-09-05T00:31:32.493Z,5.10
2018-09-05T00:34:03.197Z,4.83
2018-09-05T00:36:33.448Z,4.87
2018-09-05T00:39:05.901Z,5.47
2018-09-05T00:41:37.578Z,5.07
2018-09-05T00:44:08.620Z,5.70
2018-09-05T00:46:40.178Z,5.33
2018-09-05T00:49:10.176Z,5.23
2018-09-05T00:51:57.545Z,5.00
2018-09-05T00:54:27.093Z,4.87
2018-09-05T00:56:57.565Z,4.87
2018-09-05T00:59:28.493Z,4.83
2018-09-05T01:02:06.137Z,5.83
2018-09-05T01:04:37.465Z,4.53
2018-09-05T01:07:18.696Z,5.27
2018-09-05T01:09:51.324Z,5.10
2018-09-05T01:12:23.128Z,5.50
2018-09-05T01:14:54.821Z,5.13
2018-09-05T01:17:26.241Z,5.70
2018-09-05T01:19:58.552Z,5.40
2018-09-05T01:22:30.473Z,4.90
2018-09-05T01:25:00.923Z,5.30
2018-09-05T01:27:29.871Z,5.53
2018-09-05T01:30:00.728Z,5.53
2018-09-05T01:32:32.385Z,5.80
2018-09-05T01:35:01.332Z,5.30
2018-09-05T01:37:42.890Z,5.40
2018-09-05T01:40:12.500Z,5.07
2018-09-05T01:45:35.205Z,6.17
2018-09-05T01:48:17.655Z,5.80
2018-09-05T01:50:46.843Z,5.60
2018-09-05T01:53:17.469Z,5.77
2018-09-05T01:55:47.215Z,5.47
2018-09-05T01:58:42.682Z,5.60
2018-09-05T02:01:11.768Z,5.83
2018-09-05T02:04:03.143Z,5.73
2018-09-05T02:06:32.021Z,5.23
2018-09-05T02:09:02.269Z,6.40
2018-09-05T02:11:32.830Z,6.13
2018-09-05T02:14:40.875Z,5.90
2018-09-05T02:17:14.594Z,5.43
2018-09-05T02:19:46.276Z,5.90
2018-09-05T02:22:19.069Z,6.33
2018-09-05T02:30:47.567Z,6.03
2018-09-05T02:33:17.499Z,6.90
2018-09-05T02:35:46.738Z,5.33
2018-09-05T02:38:20.956Z,5.90
2018-09-05T02:40:52.406Z,5.83
2018-09-05T02:46:09.834Z,5.67
2018-09-05T02:49:24.742Z,5.60
2018-09-05T02:51:54.968Z,7.20
2018-09-05T02:54:25.656Z,6.00
2018-09-05T02:57:11.515Z,5.50
2018-09-05T03:05:43.406Z,6.20
2018-09-05T03:08:17.007Z,5.93
2018-09-05T03:11:14.796Z,6.30
2018-09-05T03:13:44.643Z,6.47
2018-09-05T03:16:26.852Z,6.27
2018-09-05T03:18:56.921Z,5.50
2018-09-05T03:22:27.622Z,6.20
2018-09-05T03:25:00.703Z,7.23
2018-09-05T03:27:30.690Z,7.43
2018-09-05T03:30:06.538Z,6.20
2018-09-05T03:32:44.801Z,6.43
2018-09-05T03:35:15.793Z,7.17
2018-09-05T03:37:46.546Z,7.80
2018-09-05T03:40:17.582Z,7.00
2018-09-05T03:42:48.936Z,6.43
2018-09-05T03:45:19.308Z,6.23
2018-09-05T03:47:48.786Z,6.20
2018-09-05T03:50:20.749Z,7.70
2018-09-05T03:53:00.582Z,6.20
2018-09-05T03:55:31.643Z,7.13
2018-09-05T03:58:01.244Z,6.77
2018-09-05T04:00:36.831Z,6.23
2018-09-05T04:03:17.615Z,6.97
2018-09-05T04:05:47.505Z,7.00
2018-09-05T04:08:17.608Z,6.83
2018-09-05T04:10:49.161Z,6.97
2018-09-05T04:13:19.395Z,6.30
2018-09-05T04:15:50.744Z,5.93
2018-09-05T04:18:20.642Z,6.90
2018-09-05T04:20:50.539Z,6.53
2018-09-05T04:23:25.710Z,6.33
2018-09-05T04:25:55.227Z,7.17
2018-09-05T04:28:24.641Z,6.77
2018-09-05T04:30:54.920Z,6.60
2018-09-05T04:33:29.387Z,7.00
2018-09-05T04:35:59.896Z,5.90
2018-09-05T04:38:29.889Z,6.47
2018-09-05T04:41:00.720Z,7.10
2018-09-05T04:43:35.568Z,6.60
2018-09-05T04:46:07.249Z,6.67
2018-09-05T04:48:36.787Z,6.80
2018-09-05T04:51:06.961Z,6.43
2018-09-05T04:53:39.301Z,6.70
2018-09-05T04:56:08.150Z,6.40
2018-09-05T04:58:37.549Z,6.60
2018-09-05T05:01:07.606Z,6.33
2018-09-05T05:03:50.204Z,7.27
2018-09-05T05:06:20.399Z,7.03
2018-09-05T05:08:50.542Z,6.60
2018-09-05T05:11:21.566Z,7.03
2018-09-05T05:14:05.905Z,5.90
2018-09-05T05:16:35.792Z,7.60
2018-09-05T05:19:05.930Z,7.03
2018-09-05T05:21:36.183Z,6.93
2018-09-05T05:24:07.403Z,6.90
2018-09-05T05:26:37.310Z,7.33
2018-09-05T05:29:07.591Z,6.20
2018-09-05T05:31:37.193Z,6.37
2018-09-05T05:37:15.517Z,6.70
2018-09-05T05:39:49.024Z,6.67
2018-09-05T05:42:19.101Z,6.83
2018-09-05T05:44:51.423Z,7.90
2018-09-05T05:47:40.842Z,14.30
2018-09-05T05:50:10.235Z,16.63
2018-09-05T05:52:40.597Z,17.10
2018-09-05T05:55:10.536Z,7.93
2018-09-05T05:57:54.288Z,11.13
2018-09-05T06:00:26.240Z,11.70
2018-09-05T06:05:31.985Z,9.67
2018-09-05T06:10:54.873Z,9.30
2018-09-05T06:13:23.998Z,10.57
2018-09-05T06:15:53.540Z,7.87
2018-09-05T06:18:30.293Z,15.13
2018-09-05T06:21:01.018Z,20.40
2018-09-05T06:23:30.001Z,17.93
2018-09-05T06:26:00.125Z,8.60
2018-09-05T06:28:31.097Z,10.60
2018-09-05T06:31:00.988Z,22.20
2018-09-05T06:33:29.486Z,15.70
2018-09-05T06:35:58.230Z,12.90
2018-09-05T06:42:36.917Z,13.67
2018-09-05T06:45:05.559Z,14.77
2018-09-05T06:47:35.196Z,11.13
2018-09-05T06:50:05.045Z,8.37
2018-09-05T06:55:27.247Z,11.33
2018-09-05T06:57:57.112Z,11.07
2018-09-05T07:00:26.333Z,14.80
2018-09-05T07:02:56.416Z,8.13
2018-09-05T07:08:42.821Z,10.30
2018-09-05T07:11:13.792Z,9.90
2018-09-05T07:13:45.892Z,11.83
2018-09-05T07:16:15.365Z,11.00
2018-09-05T07:18:45.011Z,12.07
2018-09-05T07:21:14.618Z,11.37
2018-09-05T07:23:44.105Z,10.47
2018-09-05T07:28:56.703Z,18.17
2018-09-05T07:31:28.700Z,19.83
2018-09-05T07:33:57.700Z,15.03
2018-09-05T07:36:30.192Z,15.43
2018-09-05T07:39:04.337Z,11.60
2018-09-05T07:41:32.883Z,15.43
2018-09-05T07:44:02.258Z,17.50
2018-09-05T07:46:34.078Z,21.97
2018-09-05T07:49:06.530Z,19.20
2018-09-05T07:51:35.720Z,17.10
2018-09-05T07:54:06.519Z,38.40
2018-09-05T07:56:40.325Z,14.23
2018-09-05T07:59:14.244Z,13.33
2018-09-05T08:01:46.083Z,22.83
2018-09-05T08:04:18.978Z,11.40
2018-09-05T08:06:50.319Z,11.07
2018-09-05T08:09:20.781Z,14.30
2018-09-05T08:11:50.711Z,11.23
2018-09-05T08:14:21.174Z,11.30
2018-09-05T08:16:57.064Z,11.20
2018-09-05T08:19:27.735Z,10.97
2018-09-05T08:22:00.078Z,10.40
2018-09-05T08:24:33.104Z,10.77
2018-09-05T08:27:05.313Z,10.30
2018-09-05T08:29:36.133Z,10.93
2018-09-05T08:32:06.265Z,10.63
2018-09-05T08:34:36.727Z,11.90
2018-09-05T08:37:29.124Z,11.30
2018-09-05T08:39:59.945Z,10.87
2018-09-05T08:42:32.977Z,11.40
2018-09-05T08:45:03.379Z,13.07
2018-09-05T08:47:32.502Z,11.63
2018-09-05T08:50:01.829Z,12.07
2018-09-05T08:52:31.336Z,12.37
2018-09-05T08:55:00.745Z,11.50
2018-09-05T08:57:31.682Z,11.93
2018-09-05T09:00:00.907Z,12.27
2018-09-05T09:02:30.162Z,11.43
2018-09-05T09:04:59.170Z,11.77
2018-09-05T09:07:28.336Z,11.20
2018-09-05T09:09:58.525Z,11.83
2018-09-05T09:12:27.680Z,11.37
2018-09-05T09:14:59.245Z,11.47
2018-09-05T09:17:31.550Z,11.63
2018-09-05T09:20:00.560Z,12.73
2018-09-05T09:22:30.436Z,12.10
2018-09-05T09:25:01.378Z,12.87
2018-09-05T09:27:31.493Z,12.43
2018-09-05T09:30:00.500Z,12.17
2018-09-05T09:32:30.903Z,12.90
2018-09-05T09:35:00.368Z,13.03
2018-09-05T09:37:28.921Z,12.47
2018-09-05T09:40:00.557Z,12.77
2018-09-05T09:42:31.302Z,12.40
2018-09-05T09:45:00.268Z,14.57
2018-09-05T09:47:28.780Z,12.60
2018-09-05T09:49:58.777Z,13.30
2018-09-05T09:52:27.824Z,13.53
2018-09-05T09:54:57.572Z,14.33
2018-09-05T09:57:27.018Z,14.47
2018-09-05T09:59:57.089Z,15.37
2018-09-05T10:02:34.769Z,15.07
2018-09-05T10:05:09.478Z,13.83
2018-09-05T10:07:59.946Z,14.23
2018-09-05T10:10:36.073Z,13.73
2018-09-05T10:13:13.275Z,14.40
2018-09-05T10:15:48.378Z,13.17
2018-09-05T10:21:05.782Z,13.87
2018-09-05T10:23:34.579Z,13.13
2018-09-05T10:26:04.841Z,13.33
2018-09-05T10:28:39.591Z,14.93
2018-09-05T10:31:12.379Z,11.57
2018-09-05T10:33:42.260Z,12.27
2018-09-05T10:36:11.425Z,12.63
2018-09-05T10:43:47.921Z,14.87
2018-09-05T10:46:17.308Z,12.70
2018-09-05T10:49:00.196Z,13.90
2018-09-05T10:54:19.339Z,13.97
2018-09-05T10:56:53.030Z,11.13
2018-09-05T10:59:23.271Z,11.70
2018-09-05T11:01:51.869Z,11.57
2018-09-05T11:04:21.680Z,12.03
2018-09-05T11:06:51.765Z,11.80
2018-09-05T11:09:20.317Z,13.23
2018-09-05T11:11:55.647Z,14.53
2018-09-05T11:14:24.808Z,15.27
2018-09-05T11:16:54.568Z,13.37
2018-09-05T11:19:23.941Z,15.73
2018-09-05T11:21:54.022Z,18.03
2018-09-05T11:24:23.319Z,13.67
2018-09-05T11:40:43.458Z,14.93
2018-09-05T11:43:14.501Z,15.17
2018-09-05T11:45:46.020Z,14.70
2018-09-05T11:48:16.185Z,14.40
2018-09-05T11:50:46.501Z,13.30
2018-09-05T11:53:17.295Z,14.30
2018-09-05T11:55:46.916Z,14.23
2018-09-05T11:58:37.196Z,12.70
2018-09-05T12:01:11.611Z,15.20
2018-09-05T12:03:41.086Z,14.27
2018-09-05T12:06:11.581Z,14.57
2018-09-05T12:08:42.943Z,14.40
2018-09-05T12:11:12.999Z,15.13
2018-09-05T12:13:42.603Z,16.73
2018-09-05T12:16:11.693Z,14.77
2018-09-05T12:18:43.126Z,15.60
2018-09-05T12:21:16.798Z,14.83
2018-09-05T12:23:46.915Z,14.43
2018-09-05T12:26:18.165Z,15.80
2018-09-05T12:28:52.316Z,15.50
2018-09-05T12:31:21.450Z,13.90
2018-09-05T12:33:51.829Z,14.20
2018-09-05T12:36:22.399Z,14.90
2018-09-05T12:38:55.136Z,15.13
2018-09-05T12:41:25.298Z,16.50
2018-09-05T12:43:54.884Z,14.70
2018-09-05T12:46:28.063Z,14.60
2018-09-05T12:48:59.962Z,15.00
2018-09-05T12:51:30.245Z,15.93
2018-09-05T12:53:58.786Z,15.90
2018-09-05T12:56:27.777Z,15.27
2018-09-05T12:58:59.460Z,14.57
2018-09-05T13:01:28.345Z,16.00
2018-09-05T13:03:58.530Z,19.10
2018-09-05T13:06:27.479Z,19.57
2018-09-05T13:08:57.260Z,16.00
2018-09-05T13:11:26.690Z,55.87
2018-09-05T13:13:56.149Z,30.73
2018-09-05T13:16:24.887Z,23.97
2018-09-05T13:18:54.930Z,24.43
2018-09-05T13:21:25.796Z,19.27
2018-09-05T13:23:59.896Z,19.03
2018-09-05T13:26:30.445Z,24.00
2018-09-05T13:31:56.146Z,17.77
2018-09-05T13:34:28.410Z,17.73
2018-09-05T13:36:58.273Z,19.43
2018-09-05T13:39:28.049Z,15.83
2018-09-05T13:42:04.482Z,28.40
2018-09-05T13:44:35.077Z,44.00
2018-09-05T13:47:04.838Z,25.40
2018-09-05T13:49:34.533Z,21.30
2018-09-05T13:52:05.674Z,21.67
2018-09-05T13:54:37.482Z,21.80
2018-09-05T13:57:06.992Z,23.23
2018-09-05T13:59:36.259Z,16.40
2018-09-05T14:02:13.821Z,17.33
2018-09-05T14:04:43.744Z,17.07
2018-09-05T14:07:13.840Z,20.07
2018-09-05T14:09:43.761Z,17.63
2018-09-05T14:12:12.737Z,18.27
2018-09-05T14:14:42.101Z,18.07
2018-09-05T14:17:11.796Z,16.67
2018-09-05T14:19:40.787Z,17.67
2018-09-05T14:22:19.267Z,17.77
2018-09-05T14:24:49.295Z,16.57
2018-09-05T14:27:18.708Z,15.87
2018-09-05T14:29:47.948Z,17.03
2018-09-05T14:32:28.080Z,15.60
2018-09-05T14:34:57.989Z,16.53
2018-09-05T14:37:29.151Z,17.13
2018-09-05T14:39:58.260Z,15.83
2018-09-05T14:42:49.308Z,15.93
2018-09-05T14:45:18.752Z,16.50
2018-09-05T14:47:48.233Z,14.57
2018-09-05T14:50:17.592Z,15.07
2018-09-05T14:52:46.870Z,16.30
2018-09-05T14:55:17.881Z,15.83
2018-09-05T14:57:47.031Z,14.60
2018-09-05T15:00:17.764Z,14.17
2018-09-05T15:02:48.138Z,14.63
2018-09-05T15:08:29.093Z,14.33
2018-09-05T15:10:58.416Z,14.30
2018-09-05T15:13:28.795Z,15.70
2018-09-05T15:16:00.359Z,13.67
2018-09-05T15:18:39.315Z,14.27
2018-09-05T15:21:09.877Z,13.50
2018-09-05T15:23:38.829Z,14.30
2018-09-05T15:26:07.852Z,14.47
2018-09-05T15:28:41.179Z,14.47
2018-09-05T15:31:11.222Z,15.23
2018-09-05T15:33:42.572Z,14.37
2018-09-05T15:36:12.811Z,14.80
2018-09-05T15:38:43.382Z,14.73
2018-09-05T15:41:11.998Z,13.63
2018-09-05T15:43:43.053Z,13.53
2018-09-05T15:46:13.081Z,13.13
2018-09-05T15:48:43.647Z,13.07
2018-09-05T15:51:14.205Z,13.00
2018-09-05T15:53:44.473Z,13.00
2018-09-05T15:56:15.094Z,13.33
2018-09-05T15:58:52.148Z,13.37
2018-09-05T16:01:21.998Z,13.17
2018-09-05T16:03:51.629Z,15.37
2018-09-05T16:06:21.733Z,27.43
2018-09-05T16:09:00.451Z,12.93
2018-09-05T16:11:30.535Z,20.07
2018-09-05T16:14:01.437Z,13.87
2018-09-05T16:16:31.122Z,17.27
2018-09-05T16:19:19.507Z,13.70
2018-09-05T16:21:49.389Z,12.77
2018-09-05T16:24:18.510Z,12.37
2018-09-05T16:26:47.662Z,17.20
2018-09-05T16:29:16.994Z,12.90
2018-09-05T16:31:46.585Z,19.43
2018-09-05T16:34:15.644Z,12.97
2018-09-05T16:36:45.246Z,14.37
2018-09-05T16:39:26.873Z,12.77
2018-09-05T16:41:55.931Z,13.70
2018-09-05T16:44:26.231Z,12.47
2018-09-05T16:46:55.069Z,12.70
2018-09-05T16:49:29.225Z,12.83
2018-09-05T16:51:58.906Z,12.83
2018-09-05T16:54:28.185Z,12.43
2018-09-05T16:56:56.712Z,12.40
2018-09-05T16:59:25.205Z,12.57
2018-09-05T17:01:54.595Z,13.27
2018-09-05T17:04:26.141Z,14.23
2018-09-05T17:06:56.971Z,11.83
2018-09-05T17:09:28.438Z,12.00
2018-09-05T17:11:58.146Z,12.23
2018-09-05T17:14:26.844Z,12.43
2018-09-05T17:16:57.936Z,14.77
2018-09-05T17:19:30.989Z,12.57
2018-09-05T17:22:01.121Z,13.30
2018-09-05T17:24:30.168Z,12.60
2018-09-05T17:27:00.725Z,12.70
2018-09-05T17:29:29.513Z,13.97
2018-09-05T17:32:00.574Z,11.73
2018-09-05T17:34:29.901Z,11.63
2018-09-05T17:37:00.333Z,12.40
2018-09-05T17:39:39.206Z,12.27
2018-09-05T17:42:10.065Z,11.73
2018-09-05T17:44:41.106Z,32.57
2018-09-05T17:47:11.091Z,11.90
2018-09-05T17:49:47.783Z,14.03
2018-09-05T17:52:16.744Z,14.33
2018-09-05T17:54:47.633Z,11.73
2018-09-05T17:57:16.605Z,12.70
2018-09-05T18:03:02.375Z,12.63
2018-09-05T18:05:31.303Z,12.53
2018-09-05T18:08:00.581Z,12.40
2018-09-05T18:10:29.581Z,13.13
2018-09-05T18:12:58.902Z,17.13
2018-09-05T18:15:28.441Z,19.37
2018-09-05T18:17:56.963Z,13.07
2018-09-05T18:20:26.524Z,17.00
2018-09-05T18:22:55.077Z,14.43
2018-09-05T18:25:24.062Z,13.13
2018-09-05T18:27:54.129Z,12.13
2018-09-05T18:30:22.884Z,13.93
2018-09-05T18:32:53.048Z,12.97
2018-09-05T18:35:23.081Z,13.90
2018-09-05T18:37:51.565Z,14.63
2018-09-05T18:40:21.726Z,13.90
2018-09-05T18:42:50.214Z,13.27
2018-09-05T18:45:18.734Z,14.53
2018-09-05T18:47:47.908Z,12.73
2018-09-05T18:50:17.337Z,15.50
2018-09-05T18:52:46.672Z,13.90
2018-09-05T18:55:15.428Z,12.60
2018-09-05T18:57:44.156Z,12.80
2018-09-05T19:00:13.055Z,14.07
2018-09-05T19:02:41.990Z,12.67
2018-09-05T19:05:30.162Z,12.83
2018-09-05T19:07:58.688Z,12.33
2018-09-05T19:10:27.913Z,13.20
2018-09-05T19:12:57.627Z,12.77
2018-09-05T19:15:35.637Z,13.40
2018-09-05T19:18:04.140Z,12.70
2018-09-05T19:20:33.870Z,13.20
2018-09-05T19:23:04.090Z,14.37
2018-09-05T19:25:42.829Z,12.40
2018-09-05T19:28:11.708Z,12.87
2018-09-05T19:30:40.464Z,11.90
2018-09-05T19:33:08.962Z,12.37
2018-09-05T19:35:37.517Z,12.27
2018-09-05T19:38:06.144Z,12.27
2018-09-05T19:40:34.681Z,11.23
2018-09-05T19:43:04.224Z,12.37
2018-09-05T19:45:33.647Z,12.00
2018-09-05T19:48:06.300Z,12.33
2018-09-05T19:50:35.257Z,12.00
2018-09-05T19:53:04.249Z,11.17
2018-09-05T19:55:32.797Z,11.50
2018-09-05T19:58:01.692Z,11.67
2018-09-05T20:00:30.614Z,11.73
2018-09-05T20:02:59.408Z,10.53
2018-09-05T20:05:28.532Z,11.10
2018-09-05T20:07:57.935Z,10.83
2018-09-05T20:10:30.112Z,12.70
2018-09-05T20:12:58.874Z,16.73
2018-09-05T20:15:27.476Z,12.23
2018-09-05T20:17:56.365Z,21.13
2018-09-05T20:20:24.914Z,13.33
2018-09-05T20:22:54.825Z,11.40
2018-09-05T20:25:24.342Z,11.60
2018-09-05T20:27:53.585Z,10.37
2018-09-05T20:30:22.803Z,11.00
2018-09-05T20:32:52.139Z,11.53
2018-09-05T20:35:21.102Z,12.60
2018-09-05T20:37:49.651Z,10.63
2018-09-05T20:40:18.169Z,10.10
2018-09-05T20:42:47.762Z,10.10
2018-09-05T20:45:16.254Z,10.73
2018-09-05T20:47:45.405Z,10.97
2018-09-05T20:50:13.938Z,11.00
2018-09-05T20:52:47.324Z,11.50
2018-09-05T20:55:17.100Z,10.93
2018-09-05T20:57:45.635Z,11.27
2018-09-05T21:00:14.141Z,10.93
2018-09-05T21:02:43.139Z,10.63
2018-09-05T21:05:13.445Z,9.50
2018-09-05T21:07:42.199Z,9.93
2018-09-05T21:10:11.679Z,9.73
2018-09-05T21:12:40.319Z,10.17
2018-09-05T21:15:11.779Z,11.07
2018-09-05T21:17:41.168Z,9.23
2018-09-05T21:20:09.740Z,9.93
2018-09-05T21:22:38.274Z,9.43
2018-09-05T21:25:06.973Z,10.20
2018-09-05T21:27:35.620Z,8.87
2018-09-05T21:30:04.687Z,10.00
2018-09-05T21:32:33.345Z,8.57
2018-09-05T21:35:02.149Z,9.10
2018-09-05T21:37:30.657Z,10.27
2018-09-05T21:39:59.515Z,8.93
2018-09-05T21:42:28.253Z,9.20
2018-09-05T21:44:56.749Z,9.37
2018-09-05T21:47:25.725Z,10.27
2018-09-05T21:49:55.603Z,9.60
2018-09-05T21:52:24.832Z,10.30
2018-09-05T21:54:54.157Z,9.27
2018-09-05T21:57:22.784Z,9.87
2018-09-05T21:59:52.322Z,9.43
2018-09-05T22:02:20.871Z,10.53
2018-09-05T22:04:50.089Z,9.40
2018-09-05T22:07:18.868Z,10.40
2018-09-05T22:09:48.385Z,10.77
2018-09-05T22:12:17.409Z,11.37
2018-09-05T22:14:48.338Z,9.97
2018-09-05T22:17:16.940Z,10.37
2018-09-05T22:19:45.445Z,9.90
2018-09-05T22:22:14.740Z,11.10
2018-09-05T22:24:43.458Z,10.10
2018-09-05T22:27:30.322Z,9.60
2018-09-05T22:29:58.837Z,9.77
2018-09-05T22:32:28.266Z,9.40
2018-09-05T22:34:57.660Z,9.53
2018-09-05T22:37:26.312Z,9.90
2018-09-05T22:39:55.297Z,11.63
2018-09-05T22:42:23.821Z,10.87
2018-09-05T22:45:04.270Z,10.10
2018-09-05T22:47:45.420Z,9.23
2018-09-05T22:50:34.012Z,9.37
2018-09-05T22:53:15.790Z,10.03
2018-09-05T22:56:15.650Z,9.17
2018-09-05T23:01:36.290Z,10.13
2018-09-05T23:04:48.121Z,9.00
2018-09-05T23:07:46.608Z,10.20
2018-09-05T23:10:31.802Z,9.63
2018-09-05T23:13:12.342Z,9.67
2018-09-05T23:20:10.096Z,10.13
2018-09-05T23:22:49.767Z,10.93
2018-09-05T23:25:19.326Z,9.43
2018-09-05T23:28:00.384Z,10.10
2018-09-05T23:30:28.902Z,9.63
2018-09-05T23:32:57.668Z,10.87
2018-09-05T23:35:26.231Z,10.00
2018-09-05T23:37:56.256Z,9.70
2018-09-05T23:40:25.811Z,10.37
2018-09-05T23:42:54.946Z,9.90
2018-09-05T23:45:23.905Z,9.63
2018-09-05T23:47:52.425Z,10.00
2018-09-05T23:50:20.977Z,9.77
2018-09-05T23:52:50.320Z,9.53
2018-09-05T23:55:19.103Z,9.47
2018-09-05T23:57:47.634Z,9.70
